This is the latest recevied weather packets stored in our database for station/object SV6DBG-10. If no packets are shown the sender has not sent any weather packets the latest 10 day(s).
| Time | Temp. | Humidity | Pressure | Rain* | Wind** | Luminosity | Snow |
|---|---|---|---|---|---|---|---|
| 1777744733 | 11.67° C | 48% | 1020.4 hPa | - | - | - | - |
| 1777743833 | 12.22° C | 41% | 1020.2 hPa | - | - | - | - |
| 1777742933 | 12.22° C | 35% | 1020.2 hPa | - | - | - | - |
| 1777742033 | 13.33° C | 32% | 1020.3 hPa | - | - | - | - |
| 1777741133 | 13.89° C | 30% | 1020.3 hPa | - | - | - | - |
| 1777740231 | 14.44° C | 31% | 1020.4 hPa | - | - | - | - |
| 1777739331 | 14.44° C | 30% | 1020.4 hPa | - | - | - | - |
| 1777738431 | 15.56° C | 28% | 1020.3 hPa | - | - | - | - |
| 1777737531 | 16.11° C | 22% | 1020.4 hPa | - | - | - | - |
| 1777736631 | 16.67° C | 21% | 1020.3 hPa | - | - | - | - |
| 1777735731 | 15° C | 23% | 1020.3 hPa | - | - | - | - |
| 1777734831 | 15° C | 24% | 1020.4 hPa | - | - | - | - |
| 1777733930 | 15° C | 23% | 1020.5 hPa | - | - | - | - |
| 1777733030 | 15.56° C | 22% | 1020.4 hPa | - | - | - | - |
| 1777732130 | 16.11° C | 20% | 1020.5 hPa | - | - | - | - |
| 1777731230 | 16.11° C | 22% | 1020.4 hPa | - | - | - | - |
| 1777730330 | 16.11° C | 21% | 1020.6 hPa | - | - | - | - |
| 1777729430 | 16.11° C | 22% | 1020.6 hPa | - | - | - | - |
| 1777728529 | 16.67° C | 21% | 1020.6 hPa | - | - | - | - |
| 1777727629 | 16.11° C | 24% | 1020.8 hPa | - | - | - | - |
| 1777726729 | 16.11° C | 22% | 1020.9 hPa | - | - | - | - |
| 1777725829 | 15° C | 23% | 1021.2 hPa | - | - | - | - |
| 1777724929 | 15° C | 23% | 1021.2 hPa | - | - | - | - |
| 1777724029 | 14.44° C | 25% | 1021.3 hPa | - | - | - | - |
| 1777723128 | 14.44° C | 27% | 1021.4 hPa | - | - | - | - |
* Rain since midnight (hover to see other rain measurements)
** Current wind speed in m/s (hover to see current wind gust speed)